Een Airbus A320 AirAsia verliet de landingsbaan van Brunei International Airport

0 446

Tijdens deze dag, een vliegtuig Airbus A320 (9M-AQA) AirAsia (de goedkope luchtvaartmaatschappij van Maleisië) is vertrokken van de landingsbaan op Brunei International Airport. Het incident gebeurde rond 15 uur lokale tijd. Het vliegtuig voerde vlucht AK30 uit op de route Kuala Lumpur - Bandar Seri Begawan en had 109 passagiers aan boord. Bij de noodevacuatie vielen geen slachtoffers, alleen lichte verwondingen.

A320_Asiana_Brunei
(foto bron: Twitter)

De ongelukkige gebeurtenis werd toegeschreven aan ongunstige weersomstandigheden. Na de landing verliet het vliegtuig de landingsbaan en stopte in het grasveld, met de wielen vast in de grond.

Weersomstandigheden op het moment van het incident:

WBSB 070700Z 28011KT 8000 VCSH SCT016 FEW017CB BKN300 32/245 Q1006 NOSIG
WBSB 070730Z 21009KT 3000SW-SHRA SCT015 FEW016CB BKN140 30/24 Q1007 TEMPO 24015G25KT 4000 SHRA
WBSB 070800Z 20008KT 3000SW-TSRA SCT014 FEW016CB BKN140 28/26 Q1007 TEMPO 24015G25KT 2000 TSRA

En laten we nu de belangrijkste elementen van de code ontcijferen:

- WBSB - ICAO luchthavencode
- 070700Z, 070730Z, 070800Z - datum en tijd - interval - Z (zulu) = UTC
- 28011KT, 21009KT, 20008KT - windrichting en snelheid
- 8000, 3000SW - zicht, 3000WS - Vis.3000 in het zuidwesten
- VCSH, -SHRA, -TSRA - neerslag
- SCT016 FEW017CB BKN300, SCT015 FEW016CB BKN140, SCT014 FEW016CB BKN140 - De toestand van de lucht - hier worden ook de wolken genoemd, de hoogte waarop ze zich bevinden en hun type
- 32/245, 30/24, 28/26 - temperatuur en dauwpunt
- Q1006, Q1007 - luchtdruk
- NOSIG - zonder noemenswaardige veranderingen in weersomstandigheden
- TEMPO - TEMPO = tijdelijk en wordt gebruikt wanneer bepaalde weersomstandigheden worden verwacht, maar niet langer dan een uur duren

.

Al het bovenstaande kan verschillen per luchthaven, weer, seizoen, enz. Wie had gedacht dat er zoveel informatie in één regel code kon worden verzonden?

In het geval van het A320 AirAsia-incident waren er windstoten met snelheden van 15 tot 25 knopen (1 Kt = 0.5 m/s = 1.8 kilometer per uur) en neerslag met bliksem.

Laat een reactie achter

Uw e-mailadres wordt niet gepubliceerd.